Flight Track Log - Related Links

Times and Time Zones

All times are in EDT time to prevent confusion due to time zone crossing. See the SKW5500 flight status page for this flight to view local times or setup timezone preferences in your user account.

Time Position Orientation Groundspeed Altitude Reporting Facility
EDT Latitude Longitude Course Direction KTS MPH feet Rate Location/Type
Sun 06:39:10 PM 39.2794 -106.9497 296° West 267 307 11,800  Level Denver Center
Sun 06:40:00 PM 39.4070 -106.7868 101° East  Level FlightAware Approximate
Sun 06:40:11 PM 39.3350 -107.0083 321° Northwest 286 329 14,800  Level Denver Center
Sun 06:41:00 PM 39.3876 -106.6609 101° East  Level FlightAware Approximate
Sun 06:41:13 PM 39.3936 -106.9289 46° Northeast 336 387 17,200  Level Denver Center
Sun 06:42:00 PM 39.3639 -106.5363 104° East  Level FlightAware Approximate
Sun 06:42:15 PM 39.3908 -106.7803 91° East 356 410 19,900  Level Denver Center
Sun 06:43:00 PM 39.3333 -106.4166 90° East  Level FlightAware Approximate
Sun 06:43:17 PM 39.3714 -106.6294 99° East 382 440 22,000  Level Denver Center
Sun 06:44:19 PM 39.3539 -106.4875 99° East 420 483 23,400 1,452 Climbing Denver Center
Sun 06:45:21 PM 39.3581 -106.3158 88° East 428 493 25,000 484 Climbing Denver Center
Sun 06:46:23 PM 39.3672 -106.1494 86° East 440 506 24,400 -976 Descending Denver Center
Sun 06:47:24 PM 39.3739 -105.9967 87° East 425 489 23,000 -1,317 Descending Denver Center
Sun 06:48:26 PM 39.3800 -105.8494 87° East 410 472 21,700 -1,258 Descending Denver Center
Sun 06:49:28 PM 39.3869 -105.7025 86° East 408 470 20,400 -1,258 Descending Denver Center
Sun 06:50:30 PM 39.3919 -105.5636 87° East 389 448 19,100 -1,355 Descending Denver Center
Sun 06:51:32 PM 39.3989 -105.4236 86° East 365 420 17,600 -1,548 Descending Denver Center
Sun 06:52:34 PM 39.4033 -105.2986 87° East 350 403 15,900 -1,610 Descending Denver Center
Sun 06:53:35 PM 39.4089 -105.1808 86° East 335 386 14,300 -1,171 Descending Denver Center
Sun 06:54:37 PM 39.3969 -105.0642 98° East 305 351 13,500 -629 Descending Denver Center
Sun 06:55:39 PM 39.3764 -104.9683 105° East 279 321 13,000 -242 Descending Denver Center
Sun 06:56:41 PM 39.3556 -104.8728 106° East 261 300 13,000 -532 Level Denver Center
Sun 06:57:43 PM 39.3358 -104.7847 106° East 256 295 11,900 -1,268 Descending Denver Center
Sun 06:58:44 PM 39.3397 -104.6894 87° East 249 287 10,400 -878 Descending Denver Center
Sun 06:59:46 PM 39.3847 -104.6561 30° Northeast 231 266 10,100 -145 Descending Denver Center
Sun 07:00:48 PM 39.4444 -104.6653 353° North 218 251 10,100  Level Denver Center
Sun 07:01:50 PM 39.5067 -104.6644 North 210 242 10,100 -48 Level Denver Center
Sun 07:02:52 PM 39.5608 -104.6631 North 197 227 10,000 -48 Descending Denver Center
Sun 07:03:54 PM 39.6081 -104.6642 359° North 162 186 10,000 -439 Level Denver Center
Sun 07:04:55 PM 39.6539 -104.6628 North 163 188 9,100 -829 Descending Denver Center
Sun 07:05:57 PM 39.6981 -104.6617 North 161 185 8,300 -774 Descending Denver Center

Login

Don't have an account? Register now (free) for customized features, flight alerts, and more!